sensor_id;sensor_type;location;lat;lon;timestamp;pressure;altitude;pressure_sealevel;temperature;humidity
36378;BME280;22402;42.746;23.606;2023-11-21T00:00:55;93255.28;;;4.31;100.00
36378;BME280;22402;42.746;23.606;2023-11-21T00:03:22;93261.09;;;4.34;100.00
36378;BME280;22402;42.746;23.606;2023-11-21T00:05:48;93263.44;;;4.38;100.00
36378;BME280;22402;42.746;23.606;2023-11-21T00:08:14;93267.66;;;4.39;100.00
36378;BME280;22402;42.746;23.606;2023-11-21T00:10:39;93268.16;;;4.44;100.00
36378;BME280;22402;42.746;23.606;2023-11-21T00:13:05;93263.69;;;4.46;100.00
36378;BME280;22402;42.746;23.606;2023-11-21T00:15:31;93269.56;;;4.48;100.00
36378;BME280;22402;42.746;23.606;2023-11-21T00:17:56;93273.91;;;4.47;100.00
36378;BME280;22402;42.746;23.606;2023-11-21T00:20:22;93275.78;;;4.45;100.00
36378;BME280;22402;42.746;23.606;2023-11-21T00:22:47;93270.59;;;4.45;100.00
36378;BME280;22402;42.746;23.606;2023-11-21T00:25:13;93265.06;;;4.39;100.00
36378;BME280;22402;42.746;23.606;2023-11-21T00:27:41;93281.59;;;4.36;100.00
36378;BME280;22402;42.746;23.606;2023-11-21T00:30:07;93271.41;;;4.34;100.00
36378;BME280;22402;42.746;23.606;2023-11-21T00:32:36;93284.31;;;4.34;100.00
36378;BME280;22402;42.746;23.606;2023-11-21T00:35:02;93280.06;;;4.33;100.00
36378;BME280;22402;42.746;23.606;2023-11-21T00:37:27;93276.78;;;4.31;100.00
36378;BME280;22402;42.746;23.606;2023-11-21T00:39:56;93280.28;;;4.30;100.00
36378;BME280;22402;42.746;23.606;2023-11-21T00:42:21;93274.66;;;4.25;100.00
36378;BME280;22402;42.746;23.606;2023-11-21T00:44:47;93273.22;;;4.21;100.00
36378;BME280;22402;42.746;23.606;2023-11-21T00:47:12;93264.16;;;4.16;100.00
36378;BME280;22402;42.746;23.606;2023-11-21T00:49:38;93281.53;;;4.14;100.00
36378;BME280;22402;42.746;23.606;2023-11-21T00:52:04;93273.16;;;4.10;100.00
36378;BME280;22402;42.746;23.606;2023-11-21T00:54:30;93271.63;;;4.07;100.00
36378;BME280;22402;42.746;23.606;2023-11-21T00:56:55;93262.38;;;4.05;100.00
36378;BME280;22402;42.746;23.606;2023-11-21T00:59:22;93263.56;;;4.12;100.00
36378;BME280;22402;42.746;23.606;2023-11-21T01:01:48;93246.44;;;4.11;100.00
36378;BME280;22402;42.746;23.606;2023-11-21T01:04:13;93247.63;;;4.18;100.00
36378;BME280;22402;42.746;23.606;2023-11-21T01:06:39;93252.78;;;4.18;100.00
36378;BME280;22402;42.746;23.606;2023-11-21T01:09:04;93242.47;;;4.18;100.00
36378;BME280;22402;42.746;23.606;2023-11-21T01:11:34;93238.03;;;4.20;100.00
36378;BME280;22402;42.746;23.606;2023-11-21T01:14:02;93231.94;;;4.21;100.00
36378;BME280;22402;42.746;23.606;2023-11-21T01:16:28;93232.16;;;4.18;100.00
36378;BME280;22402;42.746;23.606;2023-11-21T01:18:54;93242.25;;;4.21;100.00
36378;BME280;22402;42.746;23.606;2023-11-21T01:21:19;93254.19;;;4.22;100.00
36378;BME280;22402;42.746;23.606;2023-11-21T01:23:45;93253.50;;;4.20;100.00
36378;BME280;22402;42.746;23.606;2023-11-21T01:26:10;93262.28;;;4.18;100.00
36378;BME280;22402;42.746;23.606;2023-11-21T01:28:35;93253.47;;;4.09;100.00
36378;BME280;22402;42.746;23.606;2023-11-21T01:31:01;93253.47;;;4.09;100.00
36378;BME280;22402;42.746;23.606;2023-11-21T01:33:27;93260.47;;;4.07;100.00
36378;BME280;22402;42.746;23.606;2023-11-21T01:35:52;93257.19;;;4.05;100.00
36378;BME280;22402;42.746;23.606;2023-11-21T01:38:21;93252.25;;;4.02;100.00
36378;BME280;22402;42.746;23.606;2023-11-21T01:40:47;93254.34;;;3.97;100.00
36378;BME280;22402;42.746;23.606;2023-11-21T01:43:12;93249.63;;;3.91;100.00
36378;BME280;22402;42.746;23.606;2023-11-21T01:45:38;93254.28;;;3.85;100.00
36378;BME280;22402;42.746;23.606;2023-11-21T01:48:04;93260.59;;;3.81;100.00
36378;BME280;22402;42.746;23.606;2023-11-21T01:50:32;93253.38;;;3.74;100.00
36378;BME280;22402;42.746;23.606;2023-11-21T01:52:59;93244.53;;;3.65;100.00
36378;BME280;22402;42.746;23.606;2023-11-21T01:55:25;93241.50;;;3.60;100.00
36378;BME280;22402;42.746;23.606;2023-11-21T01:57:53;93239.31;;;3.54;100.00
36378;BME280;22402;42.746;23.606;2023-11-21T02:00:20;93245.84;;;3.47;100.00
36378;BME280;22402;42.746;23.606;2023-11-21T02:02:50;93232.56;;;3.40;100.00
36378;BME280;22402;42.746;23.606;2023-11-21T02:05:16;93235.13;;;3.40;100.00
36378;BME280;22402;42.746;23.606;2023-11-21T02:07:43;93239.69;;;3.36;100.00
36378;BME280;22402;42.746;23.606;2023-11-21T02:10:10;93236.16;;;3.37;100.00
36378;BME280;22402;42.746;23.606;2023-11-21T02:12:40;93234.31;;;3.39;100.00
36378;BME280;22402;42.746;23.606;2023-11-21T02:15:08;93228.22;;;3.40;100.00
36378;BME280;22402;42.746;23.606;2023-11-21T02:17:43;93226.69;;;3.38;100.00
36378;BME280;22402;42.746;23.606;2023-11-21T02:20:13;93224.00;;;3.39;100.00
36378;BME280;22402;42.746;23.606;2023-11-21T02:22:43;93229.97;;;3.40;100.00
36378;BME280;22402;42.746;23.606;2023-11-21T02:25:09;93230.81;;;3.40;100.00
36378;BME280;22402;42.746;23.606;2023-11-21T02:27:34;93242.75;;;3.41;100.00
36378;BME280;22402;42.746;23.606;2023-11-21T02:30:00;93240.28;;;3.40;100.00
36378;BME280;22402;42.746;23.606;2023-11-21T02:32:27;93245.53;;;3.38;100.00
36378;BME280;22402;42.746;23.606;2023-11-21T02:34:52;93233.09;;;3.32;100.00
36378;BME280;22402;42.746;23.606;2023-11-21T02:37:21;93243.38;;;3.32;100.00
36378;BME280;22402;42.746;23.606;2023-11-21T02:39:47;93243.59;;;3.29;100.00
36378;BME280;22402;42.746;23.606;2023-11-21T02:42:12;93248.06;;;3.27;100.00
36378;BME280;22402;42.746;23.606;2023-11-21T02:44:38;93253.38;;;3.24;100.00
36378;BME280;22402;42.746;23.606;2023-11-21T02:47:04;93252.69;;;3.22;100.00
36378;BME280;22402;42.746;23.606;2023-11-21T02:49:29;93249.31;;;3.22;100.00
36378;BME280;22402;42.746;23.606;2023-11-21T02:51:56;93240.03;;;3.19;100.00
36378;BME280;22402;42.746;23.606;2023-11-21T02:54:21;93244.44;;;3.17;100.00
36378;BME280;22402;42.746;23.606;2023-11-21T02:56:47;93250.63;;;3.14;100.00
36378;BME280;22402;42.746;23.606;2023-11-21T02:59:15;93243.03;;;3.13;100.00
36378;BME280;22402;42.746;23.606;2023-11-21T03:01:41;93240.66;;;3.10;100.00
36378;BME280;22402;42.746;23.606;2023-11-21T03:04:06;93240.66;;;3.10;100.00
36378;BME280;22402;42.746;23.606;2023-11-21T03:06:32;93251.88;;;3.09;100.00
36378;BME280;22402;42.746;23.606;2023-11-21T03:08:58;93234.78;;;3.08;100.00
36378;BME280;22402;42.746;23.606;2023-11-21T03:11:23;93240.66;;;3.10;100.00
36378;BME280;22402;42.746;23.606;2023-11-21T03:13:48;93243.94;;;3.12;100.00
36378;BME280;22402;42.746;23.606;2023-11-21T03:16:15;93239.28;;;3.17;100.00
36378;BME280;22402;42.746;23.606;2023-11-21T03:18:41;93245.88;;;3.21;100.00
36378;BME280;22402;42.746;23.606;2023-11-21T03:21:07;93239.69;;;3.24;100.00
36378;BME280;22402;42.746;23.606;2023-11-21T03:23:36;93243.00;;;3.26;100.00
36378;BME280;22402;42.746;23.606;2023-11-21T03:26:02;93244.53;;;3.28;100.00
36378;BME280;22402;42.746;23.606;2023-11-21T03:28:27;93247.13;;;3.28;100.00
36378;BME280;22402;42.746;23.606;2023-11-21T03:30:54;93232.59;;;3.27;100.00
36378;BME280;22402;42.746;23.606;2023-11-21T03:33:20;93236.09;;;3.26;100.00
36378;BME280;22402;42.746;23.606;2023-11-21T03:35:45;93234.97;;;3.30;100.00
36378;BME280;22402;42.746;23.606;2023-11-21T03:38:11;93228.13;;;3.29;100.00
36378;BME280;22402;42.746;23.606;2023-11-21T03:40:37;93224.44;;;3.33;100.00
36378;BME280;22402;42.746;23.606;2023-11-21T03:43:04;93228.53;;;3.36;100.00
36378;BME280;22402;42.746;23.606;2023-11-21T03:48:06;93227.50;;;3.38;100.00
36378;BME280;22402;42.746;23.606;2023-11-21T03:50:32;93230.69;;;3.42;100.00
36378;BME280;22402;42.746;23.606;2023-11-21T03:52:57;93228.72;;;3.46;100.00
36378;BME280;22402;42.746;23.606;2023-11-21T03:55:23;93231.31;;;3.46;100.00
36378;BME280;22402;42.746;23.606;2023-11-21T03:57:52;93227.78;;;3.47;100.00
36378;BME280;22402;42.746;23.606;2023-11-21T04:00:18;93233.56;;;3.50;100.00
36378;BME280;22402;42.746;23.606;2023-11-21T04:02:46;93234.38;;;3.51;100.00
36378;BME280;22402;42.746;23.606;2023-11-21T04:05:11;93240.25;;;3.53;100.00
36378;BME280;22402;42.746;23.606;2023-11-21T04:07:37;93235.09;;;3.53;100.00
36378;BME280;22402;42.746;23.606;2023-11-21T04:10:04;93240.97;;;3.55;100.00
36378;BME280;22402;42.746;23.606;2023-11-21T04:12:32;93229.13;;;3.52;100.00
36378;BME280;22402;42.746;23.606;2023-11-21T04:14:58;93219.13;;;3.48;100.00
36378;BME280;22402;42.746;23.606;2023-11-21T04:17:23;93219.34;;;3.45;100.00
36378;BME280;22402;42.746;23.606;2023-11-21T04:19:49;93229.78;;;3.43;100.00
36378;BME280;22402;42.746;23.606;2023-11-21T04:22:14;93227.19;;;3.43;100.00
36378;BME280;22402;42.746;23.606;2023-11-21T04:29:53;93221.22;;;3.42;100.00
36378;BME280;22402;42.746;23.606;2023-11-21T04:32:21;93221.22;;;3.42;100.00
36378;BME280;22402;42.746;23.606;2023-11-21T04:37:22;93209.47;;;3.38;100.00
36378;BME280;22402;42.746;23.606;2023-11-21T04:39:48;93204.31;;;3.38;100.00
36378;BME280;22402;42.746;23.606;2023-11-21T04:44:49;93194.44;;;3.32;100.00
36378;BME280;22402;42.746;23.606;2023-11-21T04:47:14;93194.34;;;3.34;100.00
36378;BME280;22402;42.746;23.606;2023-11-21T04:49:42;93198.66;;;3.33;100.00
36378;BME280;22402;42.746;23.606;2023-11-21T04:52:09;93206.28;;;3.35;100.00
36378;BME280;22402;42.746;23.606;2023-11-21T04:54:35;93207.09;;;3.35;100.00
36378;BME280;22402;42.746;23.606;2023-11-21T04:57:01;93207.09;;;3.35;100.00
36378;BME280;22402;42.746;23.606;2023-11-21T04:59:27;93208.75;;;3.36;100.00
36378;BME280;22402;42.746;23.606;2023-11-21T05:01:53;93225.03;;;3.37;100.00
36378;BME280;22402;42.746;23.606;2023-11-21T05:04:19;93233.00;;;3.34;100.00
36378;BME280;22402;42.746;23.606;2023-11-21T05:06:45;93236.59;;;3.31;100.00
36378;BME280;22402;42.746;23.606;2023-11-21T05:09:11;93226.50;;;3.28;100.00
36378;BME280;22402;42.746;23.606;2023-11-21T05:14:12;93225.47;;;3.18;100.00
36378;BME280;22402;42.746;23.606;2023-11-21T05:16:39;93220.66;;;3.13;100.00
36378;BME280;22402;42.746;23.606;2023-11-21T05:19:04;93218.38;;;3.09;100.00
36378;BME280;22402;42.746;23.606;2023-11-21T05:21:31;93224.47;;;3.08;100.00
36378;BME280;22402;42.746;23.606;2023-11-21T05:26:36;93212.53;;;3.07;100.00
36378;BME280;22402;42.746;23.606;2023-11-21T05:31:36;93212.94;;;3.13;100.00
36378;BME280;22402;42.746;23.606;2023-11-21T05:34:03;93211.47;;;3.22;100.00
36378;BME280;22402;42.746;23.606;2023-11-21T05:36:30;93217.00;;;3.29;100.00
36378;BME280;22402;42.746;23.606;2023-11-21T05:38:56;93219.97;;;3.35;100.00
36378;BME280;22402;42.746;23.606;2023-11-21T05:41:21;93217.78;;;3.42;100.00
36378;BME280;22402;42.746;23.606;2023-11-21T05:48:57;93225.50;;;3.55;100.00
36378;BME280;22402;42.746;23.606;2023-11-21T05:51:22;93224.34;;;3.59;100.00
36378;BME280;22402;42.746;23.606;2023-11-21T05:53:48;93232.38;;;3.67;100.00
36378;BME280;22402;42.746;23.606;2023-11-21T05:56:14;93227.81;;;3.71;100.00
36378;BME280;22402;42.746;23.606;2023-11-21T05:58:40;93233.34;;;3.77;100.00
36378;BME280;22402;42.746;23.606;2023-11-21T06:01:06;93232.00;;;3.84;100.00
36378;BME280;22402;42.746;23.606;2023-11-21T06:03:34;93231.56;;;3.91;100.00
36378;BME280;22402;42.746;23.606;2023-11-21T06:06:00;93233.72;;;3.97;100.00
36378;BME280;22402;42.746;23.606;2023-11-21T06:08:27;93224.81;;;4.01;100.00
36378;BME280;22402;42.746;23.606;2023-11-21T06:10:53;93218.38;;;4.06;100.00
36378;BME280;22402;42.746;23.606;2023-11-21T06:13:18;93221.31;;;4.13;100.00
36378;BME280;22402;42.746;23.606;2023-11-21T06:15:50;93230.28;;;4.20;100.00
36378;BME280;22402;42.746;23.606;2023-11-21T06:18:16;93233.97;;;4.29;100.00
36378;BME280;22402;42.746;23.606;2023-11-21T06:20:45;93231.63;;;4.37;100.00
36378;BME280;22402;42.746;23.606;2023-11-21T06:23:10;93237.88;;;4.46;100.00
36378;BME280;22402;42.746;23.606;2023-11-21T06:25:36;93236.28;;;4.56;100.00
36378;BME280;22402;42.746;23.606;2023-11-21T06:28:02;93228.56;;;4.67;100.00
36378;BME280;22402;42.746;23.606;2023-11-21T06:30:29;93226.91;;;4.77;100.00
36378;BME280;22402;42.746;23.606;2023-11-21T06:32:54;93243.25;;;4.89;100.00
36378;BME280;22402;42.746;23.606;2023-11-21T06:35:21;93239.16;;;4.98;100.00
36378;BME280;22402;42.746;23.606;2023-11-21T06:40:22;93246.31;;;5.17;100.00
36378;BME280;22402;42.746;23.606;2023-11-21T06:42:48;93248.34;;;5.24;100.00
36378;BME280;22402;42.746;23.606;2023-11-21T06:45:13;93252.66;;;5.35;100.00
36378;BME280;22402;42.746;23.606;2023-11-21T06:47:40;93251.63;;;5.49;100.00
36378;BME280;22402;42.746;23.606;2023-11-21T06:52:36;93251.59;;;5.71;100.00
36378;BME280;22402;42.746;23.606;2023-11-21T06:55:02;93248.06;;;5.84;100.00
36378;BME280;22402;42.746;23.606;2023-11-21T06:57:28;93251.22;;;5.99;100.00
36378;BME280;22402;42.746;23.606;2023-11-21T06:59:53;93249.63;;;6.19;100.00
36378;BME280;22402;42.746;23.606;2023-11-21T07:02:19;93252.28;;;6.39;100.00
36378;BME280;22402;42.746;23.606;2023-11-21T07:07:19;93249.06;;;6.89;100.00
36378;BME280;22402;42.746;23.606;2023-11-21T07:09:45;93253.06;;;7.14;100.00
36378;BME280;22402;42.746;23.606;2023-11-21T07:12:11;93252.06;;;7.36;100.00
36378;BME280;22402;42.746;23.606;2023-11-21T07:17:12;93248.53;;;7.78;99.30
36378;BME280;22402;42.746;23.606;2023-11-21T07:19:38;93248.28;;;8.00;98.22
36378;BME280;22402;42.746;23.606;2023-11-21T07:22:03;93244.81;;;8.30;96.49
36378;BME280;22402;42.746;23.606;2023-11-21T07:24:31;93243.34;;;8.57;94.78
36378;BME280;22402;42.746;23.606;2023-11-21T07:26:57;93249.88;;;8.80;92.54
36378;BME280;22402;42.746;23.606;2023-11-21T07:29:24;93242.75;;;9.02;90.81
36378;BME280;22402;42.746;23.606;2023-11-21T07:31:55;93245.72;;;9.17;89.17
36378;BME280;22402;42.746;23.606;2023-11-21T07:34:21;93244.59;;;9.29;88.31
36378;BME280;22402;42.746;23.606;2023-11-21T07:36:46;93240.97;;;9.40;87.43
36378;BME280;22402;42.746;23.606;2023-11-21T07:39:12;93240.69;;;9.52;86.41
36378;BME280;22402;42.746;23.606;2023-11-21T07:41:38;93233.53;;;9.64;85.48
36378;BME280;22402;42.746;23.606;2023-11-21T07:44:10;93231.38;;;9.77;84.94
36378;BME280;22402;42.746;23.606;2023-11-21T07:46:35;93235.19;;;9.83;84.32
36378;BME280;22402;42.746;23.606;2023-11-21T07:49:01;93230.28;;;9.80;83.60
36378;BME280;22402;42.746;23.606;2023-11-21T07:51:26;93232.06;;;9.79;83.82
36378;BME280;22402;42.746;23.606;2023-11-21T07:53:52;93230.41;;;9.78;83.25
36378;BME280;22402;42.746;23.606;2023-11-21T07:56:17;93228.94;;;9.76;84.15
36378;BME280;22402;42.746;23.606;2023-11-21T07:58:43;93226.75;;;9.71;84.46
36378;BME280;22402;42.746;23.606;2023-11-21T08:01:09;93217.63;;;9.67;84.95
36378;BME280;22402;42.746;23.606;2023-11-21T08:03:35;93212.97;;;9.61;85.52
36378;BME280;22402;42.746;23.606;2023-11-21T08:06:00;93209.97;;;9.56;86.16
36378;BME280;22402;42.746;23.606;2023-11-21T08:08:28;93215.47;;;9.53;85.88
36378;BME280;22402;42.746;23.606;2023-11-21T08:10:54;93224.91;;;9.54;86.65
36378;BME280;22402;42.746;23.606;2023-11-21T08:13:26;93217.69;;;9.48;86.34
36378;BME280;22402;42.746;23.606;2023-11-21T08:15:56;93218.94;;;9.44;87.21
36378;BME280;22402;42.746;23.606;2023-11-21T08:18:22;93216.06;;;9.47;87.42
36378;BME280;22402;42.746;23.606;2023-11-21T08:20:48;93218.22;;;9.51;87.11
36378;BME280;22402;42.746;23.606;2023-11-21T08:23:17;93218.47;;;9.58;87.91
36378;BME280;22402;42.746;23.606;2023-11-21T08:25:43;93221.75;;;9.60;87.28
36378;BME280;22402;42.746;23.606;2023-11-21T08:28:09;93230.22;;;9.62;87.20
36378;BME280;22402;42.746;23.606;2023-11-21T08:30:35;93224.88;;;9.64;87.40
36378;BME280;22402;42.746;23.606;2023-11-21T08:33:00;93222.81;;;9.67;86.66
36378;BME280;22402;42.746;23.606;2023-11-21T08:35:26;93224.16;;;9.71;87.57
36378;BME280;22402;42.746;23.606;2023-11-21T08:37:52;93220.00;;;9.78;86.41
36378;BME280;22402;42.746;23.606;2023-11-21T08:40:21;93222.69;;;9.87;86.87
36378;BME280;22402;42.746;23.606;2023-11-21T08:42:49;93224.44;;;9.96;86.56
36378;BME280;22402;42.746;23.606;2023-11-21T08:45:17;93220.66;;;10.08;85.96
36378;BME280;22402;42.746;23.606;2023-11-21T08:47:43;93222.47;;;10.25;85.56
36378;BME280;22402;42.746;23.606;2023-11-21T08:50:10;93225.66;;;10.47;84.06
36378;BME280;22402;42.746;23.606;2023-11-21T08:52:38;93219.97;;;10.69;83.82
36378;BME280;22402;42.746;23.606;2023-11-21T08:55:07;93223.06;;;10.91;83.35
36378;BME280;22402;42.746;23.606;2023-11-21T08:57:37;93220.97;;;11.12;82.67
36378;BME280;22402;42.746;23.606;2023-11-21T09:00:06;93215.88;;;11.37;81.21
36378;BME280;22402;42.746;23.606;2023-11-21T09:02:37;93211.47;;;11.63;80.86
36378;BME280;22402;42.746;23.606;2023-11-21T09:05:04;93204.09;;;11.93;79.29
36378;BME280;22402;42.746;23.606;2023-11-21T09:07:30;93198.47;;;12.30;77.96
36378;BME280;22402;42.746;23.606;2023-11-21T09:09:57;93203.75;;;12.71;77.04
36378;BME280;22402;42.746;23.606;2023-11-21T09:12:22;93191.13;;;13.16;75.47
36378;BME280;22402;42.746;23.606;2023-11-21T09:14:50;93193.63;;;13.73;73.67
36378;BME280;22402;42.746;23.606;2023-11-21T09:17:16;93176.19;;;14.28;72.04
36378;BME280;22402;42.746;23.606;2023-11-21T09:19:44;93181.94;;;14.77;69.58
36378;BME280;22402;42.746;23.606;2023-11-21T09:24:50;93163.59;;;15.15;66.77
36378;BME280;22402;42.746;23.606;2023-11-21T09:27:15;93159.09;;;15.39;65.60
36378;BME280;22402;42.746;23.606;2023-11-21T09:29:44;93165.34;;;15.67;64.96
36378;BME280;22402;42.746;23.606;2023-11-21T09:32:11;93138.69;;;15.85;64.21
36378;BME280;22402;42.746;23.606;2023-11-21T09:34:39;93126.38;;;16.01;63.90
36378;BME280;22402;42.746;23.606;2023-11-21T09:37:05;93114.78;;;16.16;62.92
36378;BME280;22402;42.746;23.606;2023-11-21T09:39:34;93105.69;;;16.34;62.55
36378;BME280;22402;42.746;23.606;2023-11-21T09:42:15;93099.34;;;16.50;62.01
36378;BME280;22402;42.746;23.606;2023-11-21T09:45:18;93084.50;;;16.63;61.57
36378;BME280;22402;42.746;23.606;2023-11-21T09:47:46;93075.25;;;16.74;61.16
36378;BME280;22402;42.746;23.606;2023-11-21T09:50:16;93069.03;;;17.03;60.67
36378;BME280;22402;42.746;23.606;2023-11-21T09:53:09;93068.53;;;17.63;59.76
36378;BME280;22402;42.746;23.606;2023-11-21T09:58:11;93056.47;;;18.76;55.85
36378;BME280;22402;42.746;23.606;2023-11-21T10:00:41;93051.81;;;18.85;54.45
36378;BME280;22402;42.746;23.606;2023-11-21T10:03:07;93041.63;;;18.68;53.67
36378;BME280;22402;42.746;23.606;2023-11-21T10:05:34;93033.47;;;18.30;52.24
36378;BME280;22402;42.746;23.606;2023-11-21T10:08:00;93029.34;;;18.01;52.16
36378;BME280;22402;42.746;23.606;2023-11-21T10:10:27;93015.13;;;17.95;51.48
36378;BME280;22402;42.746;23.606;2023-11-21T10:12:57;93014.75;;;17.98;51.54
36378;BME280;22402;42.746;23.606;2023-11-21T10:15:28;93013.34;;;18.03;51.15
36378;BME280;22402;42.746;23.606;2023-11-21T10:17:55;93003.81;;;18.08;50.74
36378;BME280;22402;42.746;23.606;2023-11-21T10:20:21;93014.78;;;18.12;50.41
36378;BME280;22402;42.746;23.606;2023-11-21T10:22:48;93013.19;;;18.17;49.94
36378;BME280;22402;42.746;23.606;2023-11-21T10:25:14;93010.31;;;18.26;49.06
36378;BME280;22402;42.746;23.606;2023-11-21T10:27:40;93009.72;;;18.43;48.41
36378;BME280;22402;42.746;23.606;2023-11-21T10:30:07;93001.03;;;18.89;47.65
36378;BME280;22402;42.746;23.606;2023-11-21T10:32:34;93006.59;;;19.40;46.58
36378;BME280;22402;42.746;23.606;2023-11-21T10:35:00;92996.22;;;19.96;45.26
36378;BME280;22402;42.746;23.606;2023-11-21T10:37:27;92993.19;;;20.56;45.31
36378;BME280;22402;42.746;23.606;2023-11-21T10:40:02;92994.41;;;21.22;45.56
36378;BME280;22402;42.746;23.606;2023-11-21T10:42:32;92993.50;;;21.72;45.23
36378;BME280;22402;42.746;23.606;2023-11-21T10:44:58;92992.59;;;22.08;45.33
36378;BME280;22402;42.746;23.606;2023-11-21T10:47:26;93000.84;;;22.18;45.35
36378;BME280;22402;42.746;23.606;2023-11-21T10:49:52;92990.31;;;22.12;46.06
36378;BME280;22402;42.746;23.606;2023-11-21T10:52:20;92986.09;;;21.92;46.04
36378;BME280;22402;42.746;23.606;2023-11-21T10:54:46;92987.31;;;21.59;45.90
36378;BME280;22402;42.746;23.606;2023-11-21T10:57:17;92980.09;;;21.30;48.26
36378;BME280;22402;42.746;23.606;2023-11-21T10:59:46;92976.88;;;21.03;49.14
36378;BME280;22402;42.746;23.606;2023-11-21T11:02:25;92975.66;;;20.80;50.66
36378;BME280;22402;42.746;23.606;2023-11-21T11:04:54;92973.78;;;20.62;50.05
36378;BME280;22402;42.746;23.606;2023-11-21T11:07:27;92973.31;;;20.40;51.25
36378;BME280;22402;42.746;23.606;2023-11-21T11:09:55;92973.28;;;20.15;52.02
36378;BME280;22402;42.746;23.606;2023-11-21T11:12:21;92970.19;;;19.93;51.96
36378;BME280;22402;42.746;23.606;2023-11-21T11:14:48;92971.09;;;19.74;52.54
36378;BME280;22402;42.746;23.606;2023-11-21T11:17:14;92969.75;;;19.45;53.06
36378;BME280;22402;42.746;23.606;2023-11-21T11:19:39;92967.44;;;19.03;54.48
36378;BME280;22402;42.746;23.606;2023-11-21T11:22:29;92959.59;;;18.57;55.89
36378;BME280;22402;42.746;23.606;2023-11-21T11:25:21;92960.78;;;17.88;56.77
36378;BME280;22402;42.746;23.606;2023-11-21T11:28:10;92956.91;;;17.22;58.37
36378;BME280;22402;42.746;23.606;2023-11-21T11:30:54;92960.97;;;16.62;60.67
36378;BME280;22402;42.746;23.606;2023-11-21T11:33:42;92956.53;;;16.06;62.44
36378;BME280;22402;42.746;23.606;2023-11-21T11:36:15;92950.13;;;15.72;62.92
36378;BME280;22402;42.746;23.606;2023-11-21T11:38:46;92940.59;;;15.50;64.75
36378;BME280;22402;42.746;23.606;2023-11-21T11:41:11;92938.00;;;15.35;64.73
36378;BME280;22402;42.746;23.606;2023-11-21T11:43:37;92928.16;;;15.22;65.45
36378;BME280;22402;42.746;23.606;2023-11-21T11:46:11;92920.94;;;15.10;65.79
36378;BME280;22402;42.746;23.606;2023-11-21T11:48:40;92917.16;;;14.97;66.21
36378;BME280;22402;42.746;23.606;2023-11-21T11:51:14;92928.94;;;14.87;66.55
36378;BME280;22402;42.746;23.606;2023-11-21T11:53:42;92921.19;;;14.78;67.42
36378;BME280;22402;42.746;23.606;2023-11-21T11:56:30;92918.66;;;14.70;67.92
36378;BME280;22402;42.746;23.606;2023-11-21T11:59:00;92911.88;;;14.61;68.15
36378;BME280;22402;42.746;23.606;2023-11-21T12:01:28;92925.22;;;14.51;68.51
36378;BME280;22402;42.746;23.606;2023-11-21T12:06:48;92928.53;;;14.30;67.40
36378;BME280;22402;42.746;23.606;2023-11-21T12:09:22;92934.22;;;14.19;67.34
36378;BME280;22402;42.746;23.606;2023-11-21T12:11:50;92944.94;;;14.09;68.81
36378;BME280;22402;42.746;23.606;2023-11-21T12:14:16;92940.66;;;13.94;70.05
36378;BME280;22402;42.746;23.606;2023-11-21T12:16:42;92935.38;;;13.79;71.82
36378;BME280;22402;42.746;23.606;2023-11-21T12:19:09;92929.44;;;13.62;72.94
36378;BME280;22402;42.746;23.606;2023-11-21T12:21:36;92922.19;;;13.49;73.86
36378;BME280;22402;42.746;23.606;2023-11-21T12:24:02;92923.38;;;13.38;74.52
36378;BME280;22402;42.746;23.606;2023-11-21T12:26:28;92933.94;;;13.30;75.18
36378;BME280;22402;42.746;23.606;2023-11-21T12:28:54;92929.72;;;13.21;75.41
36378;BME280;22402;42.746;23.606;2023-11-21T12:31:23;92920.09;;;13.13;76.10
36378;BME280;22402;42.746;23.606;2023-11-21T12:33:49;92936.63;;;13.06;76.82
36378;BME280;22402;42.746;23.606;2023-11-21T12:36:15;92934.75;;;12.91;77.56
36378;BME280;22402;42.746;23.606;2023-11-21T12:38:41;92949.84;;;12.73;78.98
36378;BME280;22402;42.746;23.606;2023-11-21T12:41:07;92936.38;;;12.53;80.86
36378;BME280;22402;42.746;23.606;2023-11-21T12:43:33;92936.13;;;12.31;82.53
36378;BME280;22402;42.746;23.606;2023-11-21T12:46:10;92936.31;;;12.14;83.77
36378;BME280;22402;42.746;23.606;2023-11-21T12:48:41;92945.31;;;11.95;85.28
36378;BME280;22402;42.746;23.606;2023-11-21T12:51:08;92944.47;;;11.78;87.19
36378;BME280;22402;42.746;23.606;2023-11-21T12:53:35;92947.41;;;11.67;87.76
36378;BME280;22402;42.746;23.606;2023-11-21T12:56:09;92950.34;;;11.55;88.75
36378;BME280;22402;42.746;23.606;2023-11-21T12:58:37;92937.59;;;11.44;89.91
36378;BME280;22402;42.746;23.606;2023-11-21T13:01:05;92920.47;;;11.33;90.89
36378;BME280;22402;42.746;23.606;2023-11-21T13:03:37;92922.91;;;11.18;91.59
36378;BME280;22402;42.746;23.606;2023-11-21T13:06:03;92923.53;;;11.12;92.56
36378;BME280;22402;42.746;23.606;2023-11-21T13:08:30;92918.78;;;11.08;93.47
36378;BME280;22402;42.746;23.606;2023-11-21T13:10:57;92920.91;;;11.04;94.65
36378;BME280;22402;42.746;23.606;2023-11-21T13:13:23;92915.19;;;11.01;95.59
36378;BME280;22402;42.746;23.606;2023-11-21T13:15:51;92906.53;;;11.00;96.31
36378;BME280;22402;42.746;23.606;2023-11-21T13:18:18;92914.34;;;11.00;97.08
36378;BME280;22402;42.746;23.606;2023-11-21T13:20:44;92903.94;;;11.00;97.05
36378;BME280;22402;42.746;23.606;2023-11-21T13:23:11;92900.69;;;10.98;98.12
36378;BME280;22402;42.746;23.606;2023-11-21T13:25:42;92890.56;;;10.95;98.28
36378;BME280;22402;42.746;23.606;2023-11-21T13:28:08;92898.53;;;10.93;97.25
36378;BME280;22402;42.746;23.606;2023-11-21T13:30:35;92896.25;;;10.90;95.83
36378;BME280;22402;42.746;23.606;2023-11-21T13:33:06;92891.22;;;10.89;93.25
36378;BME280;22402;42.746;23.606;2023-11-21T13:35:34;92893.16;;;10.87;91.88